Time;durP1;ratioP1;P1;durP2;ratioP2;P2;SDS_P1;SDS_P2;PMS_P1;PMS_P2;Temp;Humidity;BMP_temperature;BMP_pressure;BME280_temperature;BME280_humidity;BME280_pressure;Samples;Min_cycle;Max_cycle;Signal;HPM_P1;HPM_P2
2022/08/09 00:00:55;;;;;;;5.80;2.70;;;24.10;54.50;;;;;;5024985;28;20037;-54
2022/08/09 00:03:20;;;;;;;5.93;2.60;;;24.10;54.50;;;;;;5025908;28;20029;-55
2022/08/09 00:05:46;;;;;;;6.97;2.75;;;24.20;54.50;;;;;;5026406;28;20048;-55
2022/08/09 00:08:12;;;;;;;5.45;2.47;;;24.10;54.50;;;;;;5025197;28;20117;-56
2022/08/09 00:10:38;;;;;;;5.85;2.80;;;24.10;54.50;;;;;;5024941;28;20044;-55
2022/08/09 00:13:05;;;;;;;5.85;2.70;;;24.10;54.30;;;;;;5020223;28;20037;-56
2022/08/09 00:15:31;;;;;;;7.28;2.47;;;24.10;54.40;;;;;;5024709;28;20021;-55
2022/08/09 00:17:57;;;;;;;5.63;2.60;;;24.10;54.50;;;;;;5025834;28;20442;-55
2022/08/09 00:20:22;;;;;;;5.50;2.65;;;24.10;54.40;;;;;;5025386;28;20021;-56
2022/08/09 00:22:48;;;;;;;6.93;2.58;;;24.10;54.40;;;;;;5025746;28;20029;-55
2022/08/09 00:25:14;;;;;;;4.95;2.60;;;24.10;54.40;;;;;;5024714;28;20022;-56
2022/08/09 00:27:40;;;;;;;5.15;2.40;;;24.10;54.40;;;;;;5027124;28;20091;-55
2022/08/09 00:30:06;;;;;;;5.60;2.30;;;24.10;54.40;;;;;;5025174;28;20033;-54
2022/08/09 00:32:32;;;;;;;6.63;2.65;;;24.10;54.50;;;;;;5022461;28;20045;-65
2022/08/09 00:34:57;;;;;;;6.75;2.70;;;24.10;54.30;;;;;;5025439;28;20036;-66
2022/08/09 00:37:23;;;;;;;5.80;2.60;;;24.10;54.30;;;;;;5026390;28;20587;-65
2022/08/09 00:39:49;;;;;;;5.78;2.70;;;24.00;54.30;;;;;;5025372;28;20401;-66
2022/08/09 00:42:14;;;;;;;6.05;2.30;;;24.00;54.30;;;;;;5025824;28;20115;-65
2022/08/09 00:44:40;;;;;;;6.28;2.72;;;24.00;54.30;;;;;;5026682;28;20026;-65
2022/08/09 00:47:06;;;;;;;5.72;2.63;;;24.00;54.20;;;;;;5026558;28;20033;-65
2022/08/09 00:49:33;;;;;;;5.63;2.53;;;24.00;54.40;;;;;;5026290;28;20037;-65
2022/08/09 00:51:59;;;;;;;5.60;2.53;;;24.00;54.50;;;;;;5022282;28;20025;-65
2022/08/09 00:54:24;;;;;;;5.90;2.65;;;24.00;54.40;;;;;;5049570;28;20064;-65
2022/08/09 00:56:50;;;;;;;5.32;2.78;;;24.00;54.40;;;;;;5027342;28;20028;-65
2022/08/09 00:59:16;;;;;;;5.47;2.40;;;24.00;54.30;;;;;;5026794;28;20022;-66
2022/08/09 01:01:42;;;;;;;5.18;2.65;;;24.00;54.20;;;;;;5027407;28;20032;-66
2022/08/09 01:04:12;;;;;;;4.97;2.53;;;24.00;54.20;;;;;;5025896;28;20394;-65
2022/08/09 01:06:49;;;;;;;4.90;2.30;;;24.00;54.20;;;;;;5029340;28;20116;-65
2022/08/09 01:09:19;;;;;;;6.20;2.72;;;24.00;54.20;;;;;;5024395;28;20026;-66
2022/08/09 01:11:48;;;;;;;5.60;2.50;;;23.90;55.20;;;;;;5027961;28;20032;-65
2022/08/09 01:14:27;;;;;;;6.88;2.90;;;24.00;54.20;;;;;;5052809;28;20090;-65
2022/08/09 01:16:57;;;;;;;6.93;2.70;;;24.00;54.20;;;;;;5050360;28;20108;-65
2022/08/09 01:20:01;;;;;;;4.97;2.65;;;23.90;54.20;;;;;;5026544;28;20615;-65
2022/08/09 01:22:49;;;;;;;5.68;2.55;;;23.90;54.20;;;;;;5022555;28;20105;-65
2022/08/09 01:25:35;;;;;;;5.07;2.50;;;23.90;54.20;;;;;;5024923;28;20079;-65
2022/08/09 01:28:01;;;;;;;6.28;2.92;;;23.90;54.20;;;;;;5024984;28;20041;-66
2022/08/09 01:30:28;;;;;;;6.95;2.80;;;23.90;54.20;;;;;;5025049;28;20016;-65
2022/08/09 01:32:54;;;;;;;4.03;2.30;;;23.90;54.20;;;;;;5053550;28;20035;-65
2022/08/09 01:35:42;;;;;;;6.45;2.85;;;23.90;54.20;;;;;;5051859;28;20423;-65
2022/08/09 01:38:15;;;;;;;5.55;2.45;;;23.90;54.20;;;;;;5036170;28;20116;-65
2022/08/09 01:40:44;;;;;;;6.80;2.60;;;23.90;54.30;;;;;;5051935;28;20039;-66
2022/08/09 01:43:10;;;;;;;5.07;2.53;;;23.90;54.20;;;;;;5038938;28;20037;-65
2022/08/09 01:45:36;;;;;;;5.18;2.50;;;23.90;54.30;;;;;;5029251;28;20060;-65
2022/08/09 01:48:01;;;;;;;5.68;2.75;;;23.90;54.30;;;;;;5037589;28;20470;-65
2022/08/09 01:50:27;;;;;;;6.60;2.72;;;23.90;54.30;;;;;;5028822;28;20026;-66
2022/08/09 01:52:55;;;;;;;6.07;2.63;;;23.90;54.30;;;;;;5026900;28;20044;-65
2022/08/09 01:55:22;;;;;;;7.13;2.65;;;23.80;54.30;;;;;;5031906;28;20051;-64
2022/08/09 01:57:48;;;;;;;6.60;2.67;;;23.90;54.40;;;;;;5028982;28;20022;-64
2022/08/09 02:00:14;;;;;;;5.97;2.60;;;23.80;54.40;;;;;;5052908;28;20536;-65
2022/08/09 02:02:43;;;;;;;7.03;2.80;;;23.80;54.40;;;;;;5029208;28;20045;-64
2022/08/09 02:05:10;;;;;;;7.28;2.60;;;23.80;54.40;;;;;;5033328;28;20029;-64
2022/08/09 02:07:40;;;;;;;6.45;2.80;;;23.80;54.40;;;;;;5027733;28;20108;-64
2022/08/09 02:10:16;;;;;;;6.07;2.85;;;23.80;54.40;;;;;;5024896;28;20474;-64
2022/08/09 02:12:42;;;;;;;4.72;2.40;;;23.80;54.40;;;;;;5029550;28;20108;-64
2022/08/09 02:15:08;;;;;;;6.60;3.00;;;23.80;54.50;;;;;;5028020;28;20562;-64
2022/08/09 02:17:33;;;;;;;6.72;2.70;;;23.80;54.50;;;;;;5027588;28;20056;-64
2022/08/09 02:19:59;;;;;;;4.97;2.40;;;23.80;54.60;;;;;;5028829;28;20739;-64
2022/08/09 02:22:33;;;;;;;6.38;2.83;;;23.80;54.70;;;;;;5027989;28;20403;-64
2022/08/09 02:25:00;;;;;;;6.43;2.90;;;23.80;54.60;;;;;;5023912;28;20474;-64
2022/08/09 02:27:28;;;;;;;7.07;2.90;;;23.80;54.70;;;;;;5029038;28;20034;-64
2022/08/09 02:29:53;;;;;;;6.05;3.08;;;23.80;54.70;;;;;;5026969;28;20108;-64
2022/08/09 02:32:20;;;;;;;8.95;2.80;;;23.70;54.70;;;;;;5028543;28;20195;-64
2022/08/09 02:34:47;;;;;;;6.03;2.50;;;23.80;54.80;;;;;;5034946;28;20028;-64
2022/08/09 02:37:14;;;;;;;6.55;3.00;;;23.70;54.70;;;;;;5038608;28;20072;-64
2022/08/09 02:39:48;;;;;;;6.95;2.78;;;23.70;54.80;;;;;;5031394;28;20097;-64
2022/08/09 02:42:16;;;;;;;7.03;2.58;;;23.70;54.70;;;;;;5027507;28;20025;-64
2022/08/09 02:44:48;;;;;;;6.20;2.63;;;23.70;54.80;;;;;;5027724;28;20456;-64
2022/08/09 02:47:20;;;;;;;5.70;2.80;;;23.80;54.80;;;;;;5022659;28;20037;-65
2022/08/09 02:49:53;;;;;;;6.32;2.83;;;23.80;54.80;;;;;;5033615;28;20414;-64
2022/08/09 02:52:19;;;;;;;7.15;2.80;;;23.70;54.80;;;;;;5028214;28;20495;-64
2022/08/09 02:54:45;;;;;;;5.57;2.60;;;23.70;54.80;;;;;;5027519;28;20033;-64
2022/08/09 02:57:10;;;;;;;6.63;2.60;;;23.70;54.90;;;;;;5051725;28;20025;-64
2022/08/09 02:59:36;;;;;;;6.38;2.42;;;23.70;54.80;;;;;;5027765;28;20565;-64
2022/08/09 03:02:03;;;;;;;5.68;2.65;;;23.70;54.90;;;;;;5026881;28;20029;-64
2022/08/09 03:04:30;;;;;;;6.93;2.63;;;23.70;54.80;;;;;;5027673;28;20017;-64
2022/08/09 03:06:56;;;;;;;6.28;2.55;;;23.70;55.90;;;;;;5030090;28;20053;-65
2022/08/09 03:09:22;;;;;;;7.07;2.80;;;23.70;54.90;;;;;;5030721;28;20022;-64
2022/08/09 03:11:48;;;;;;;5.47;2.60;;;23.70;54.90;;;;;;5027451;28;20026;-64
2022/08/09 03:14:13;;;;;;;5.90;2.35;;;23.70;54.90;;;;;;5035732;28;20052;-64
2022/08/09 03:16:39;;;;;;;8.02;2.78;;;23.60;54.90;;;;;;5027409;28;20501;-64
2022/08/09 03:19:05;;;;;;;5.50;2.42;;;23.60;54.80;;;;;;5027913;28;20483;-64
2022/08/09 03:21:30;;;;;;;4.72;2.50;;;23.70;55.00;;;;;;5026420;28;20486;-64
2022/08/09 03:23:56;;;;;;;6.57;2.70;;;23.70;54.90;;;;;;5027044;28;20116;-64
2022/08/09 03:26:22;;;;;;;6.68;2.97;;;23.70;55.00;;;;;;5027416;28;20731;-64
2022/08/09 03:28:48;;;;;;;5.15;2.38;;;23.60;54.90;;;;;;5031554;28;20031;-64
2022/08/09 03:31:16;;;;;;;6.30;2.90;;;23.70;55.00;;;;;;5027209;28;20398;-64
2022/08/09 03:33:42;;;;;;;6.90;2.78;;;23.60;55.00;;;;;;5027327;28;20022;-64
2022/08/09 03:36:09;;;;;;;5.72;2.58;;;23.60;55.00;;;;;;5035078;28;20033;-64
2022/08/09 03:38:36;;;;;;;6.25;2.60;;;23.70;54.90;;;;;;5026773;28;20021;-64
2022/08/09 03:41:01;;;;;;;6.53;2.60;;;23.60;54.90;;;;;;5028218;28;20030;-64
2022/08/09 03:43:28;;;;;;;5.07;2.40;;;23.60;55.00;;;;;;5027558;28;20100;-65
2022/08/09 03:45:53;;;;;;;6.32;2.65;;;23.60;55.00;;;;;;5026413;28;20053;-64
2022/08/09 03:48:21;;;;;;;6.55;2.55;;;23.60;55.00;;;;;;5026676;28;20029;-64
2022/08/09 03:50:46;;;;;;;4.72;2.28;;;23.60;55.00;;;;;;5027039;28;20053;-64
2022/08/09 03:53:12;;;;;;;5.85;2.80;;;23.60;55.00;;;;;;5034944;28;20099;-64
2022/08/09 03:55:38;;;;;;;5.57;2.50;;;23.60;55.10;;;;;;5026621;28;20041;-64
2022/08/09 03:58:03;;;;;;;6.68;2.70;;;23.60;55.00;;;;;;5026906;28;20045;-64
2022/08/09 04:00:29;;;;;;;5.45;2.22;;;23.60;55.10;;;;;;5026709;28;20059;-65
2022/08/09 04:02:55;;;;;;;4.40;2.30;;;23.60;55.00;;;;;;5027255;28;20113;-64
2022/08/09 04:05:20;;;;;;;6.10;2.60;;;23.60;55.10;;;;;;5026937;28;20486;-64
2022/08/09 04:07:49;;;;;;;4.70;2.30;;;23.50;55.00;;;;;;5054333;28;20033;-64
2022/08/09 04:10:15;;;;;;;5.05;2.33;;;23.50;55.00;;;;;;5026219;28;20026;-64
2022/08/09 04:12:46;;;;;;;4.88;2.30;;;23.60;55.10;;;;;;5027262;28;20022;-65
2022/08/09 04:15:12;;;;;;;3.65;2.42;;;23.60;55.10;;;;;;5022642;28;20413;-64
2022/08/09 04:17:41;;;;;;;6.43;2.60;;;23.50;55.00;;;;;;5026081;28;20486;-65
2022/08/09 04:20:08;;;;;;;5.20;2.58;;;23.50;55.00;;;;;;5026714;28;20092;-64
2022/08/09 04:22:34;;;;;;;5.63;2.47;;;23.50;55.00;;;;;;5025926;28;20028;-65
2022/08/09 04:25:00;;;;;;;4.88;2.20;;;23.50;55.00;;;;;;5024917;28;20401;-64
2022/08/09 04:27:25;;;;;;;6.90;2.50;;;23.50;55.00;;;;;;5025090;28;20536;-64
2022/08/09 04:29:51;;;;;;;6.47;2.47;;;23.50;55.00;;;;;;5028826;28;20101;-64
2022/08/09 04:32:17;;;;;;;5.45;2.40;;;23.50;55.00;;;;;;5054512;28;20485;-64
2022/08/09 04:34:42;;;;;;;6.63;2.50;;;23.50;55.10;;;;;;5026549;28;20489;-64
2022/08/09 04:37:08;;;;;;;5.00;2.42;;;23.50;55.10;;;;;;5022832;28;20121;-65
2022/08/09 04:39:34;;;;;;;4.38;2.22;;;23.50;55.00;;;;;;5026176;28;20068;-64
2022/08/09 04:41:59;;;;;;;4.45;2.40;;;23.50;55.10;;;;;;5025605;28;20083;-65
2022/08/09 04:44:25;;;;;;;5.43;2.22;;;23.50;55.10;;;;;;5025382;28;20076;-65
2022/08/09 04:46:51;;;;;;;5.18;2.33;;;23.50;55.10;;;;;;5027100;28;20049;-65
2022/08/09 04:49:17;;;;;;;5.30;2.45;;;23.50;55.10;;;;;;5025330;28;20120;-64
2022/08/09 04:51:43;;;;;;;4.60;2.53;;;23.50;55.20;;;;;;5024547;28;20052;-64
2022/08/09 04:54:09;;;;;;;5.13;2.30;;;23.50;55.20;;;;;;5024417;28;20017;-64
2022/08/09 04:56:34;;;;;;;7.07;2.65;;;23.50;55.20;;;;;;5027183;28;20029;-64
2022/08/09 04:59:00;;;;;;;8.75;3.08;;;23.40;54.50;;;;;;5022395;28;20045;-64
2022/08/09 05:01:26;;;;;;;7.03;2.70;;;23.30;54.30;;;;;;5025513;28;20025;-64
2022/08/09 05:03:51;;;;;;;7.25;2.53;;;23.30;54.30;;;;;;5050565;28;20029;-64
2022/08/09 05:06:17;;;;;;;8.32;2.70;;;23.20;54.40;;;;;;5027070;28;20048;-63
2022/08/09 05:08:43;;;;;;;7.03;3.10;;;23.20;54.50;;;;;;5026814;28;20056;-64
2022/08/09 05:11:08;;;;;;;8.07;2.97;;;23.20;54.50;;;;;;5026074;28;20084;-64
2022/08/09 05:13:34;;;;;;;9.00;2.80;;;23.20;54.70;;;;;;5025177;28;20034;-64
2022/08/09 05:16:00;;;;;;;8.07;3.03;;;23.10;54.40;;;;;;5028564;28;20476;-64
2022/08/09 05:18:28;;;;;;;6.45;2.50;;;23.10;54.70;;;;;;5029194;28;20101;-64
2022/08/09 05:20:55;;;;;;;7.10;3.00;;;23.10;55.10;;;;;;5030430;28;20092;-64
2022/08/09 05:23:21;;;;;;;5.75;2.28;;;23.10;55.10;;;;;;5038916;28;20567;-64
2022/08/09 05:25:47;;;;;;;7.13;2.70;;;23.10;56.00;;;;;;5030415;28;20037;-64
2022/08/09 05:28:13;;;;;;;7.43;2.60;;;23.10;55.00;;;;;;5030288;28;20935;-65
2022/08/09 05:30:38;;;;;;;9.18;2.70;;;23.20;55.00;;;;;;5029825;28;20107;-64
2022/08/09 05:33:04;;;;;;;7.50;2.55;;;23.10;55.00;;;;;;5030357;28;20036;-64
2022/08/09 05:35:30;;;;;;;7.53;2.90;;;23.20;55.00;;;;;;5028426;28;20116;-64
2022/08/09 05:37:56;;;;;;;8.13;2.53;;;23.10;55.00;;;;;;5029726;28;20099;-64
2022/08/09 05:40:22;;;;;;;5.68;2.50;;;23.10;55.00;;;;;;5031098;28;20037;-65
2022/08/09 05:42:48;;;;;;;6.30;2.70;;;23.20;55.00;;;;;;5030626;28;20025;-65
2022/08/09 05:45:14;;;;;;;7.18;2.58;;;23.20;55.00;;;;;;5030093;28;20029;-64
2022/08/09 05:47:40;;;;;;;6.45;2.75;;;23.20;55.10;;;;;;5029830;28;20647;-64
2022/08/09 05:50:06;;;;;;;5.80;2.58;;;23.20;55.10;;;;;;5029619;28;20029;-64
2022/08/09 05:52:31;;;;;;;6.75;2.75;;;23.20;55.10;;;;;;5030505;28;20013;-64
2022/08/09 05:54:57;;;;;;;7.47;2.63;;;23.20;55.00;;;;;;5029296;28;20045;-64
2022/08/09 05:57:22;;;;;;;6.57;2.55;;;23.20;55.00;;;;;;5030269;28;20025;-64
2022/08/09 05:59:48;;;;;;;6.53;2.70;;;23.20;55.00;;;;;;5025307;28;20029;-65
2022/08/09 06:02:14;;;;;;;5.50;2.60;;;23.20;55.10;;;;;;5029877;28;20100;-64
2022/08/09 06:04:40;;;;;;;5.72;2.30;;;23.20;55.00;;;;;;5029089;28;20060;-64
2022/08/09 06:07:05;;;;;;;5.22;2.25;;;23.20;55.00;;;;;;5029808;28;20048;-64
2022/08/09 06:09:31;;;;;;;7.65;2.47;;;23.20;55.00;;;;;;5029440;28;20025;-65
2022/08/09 06:11:57;;;;;;;5.63;2.45;;;23.20;55.00;;;;;;5029086;28;20029;-64
2022/08/09 06:14:23;;;;;;;6.88;2.50;;;23.20;55.00;;;;;;5029866;28;20097;-64
2022/08/09 06:16:49;;;;;;;5.80;2.60;;;23.20;55.00;;;;;;5029945;28;20445;-64
2022/08/09 06:19:15;;;;;;;6.53;2.40;;;23.20;55.00;;;;;;5029310;28;20037;-65
2022/08/09 06:21:40;;;;;;;5.55;2.38;;;23.20;55.00;;;;;;5029225;28;20042;-65
2022/08/09 06:24:06;;;;;;;6.88;2.67;;;23.20;55.00;;;;;;5030173;28;20032;-65
2022/08/09 06:26:33;;;;;;;5.53;2.55;;;23.20;54.90;;;;;;5028704;28;20100;-65
2022/08/09 06:28:59;;;;;;;7.07;2.53;;;23.20;55.00;;;;;;5029267;28;20029;-65
2022/08/09 06:31:25;;;;;;;6.53;2.30;;;23.20;55.00;;;;;;5029426;28;20363;-64
2022/08/09 06:33:50;;;;;;;5.20;2.35;;;23.20;54.90;;;;;;5028490;28;20013;-64
2022/08/09 06:36:16;;;;;;;6.13;2.50;;;23.20;55.00;;;;;;5028853;28;20107;-65
2022/08/09 06:38:42;;;;;;;5.88;2.40;;;23.20;54.90;;;;;;5028630;28;20028;-64
2022/08/09 06:41:08;;;;;;;6.75;2.58;;;23.20;54.90;;;;;;5029314;28;20120;-65
2022/08/09 06:43:34;;;;;;;6.63;2.40;;;23.20;55.00;;;;;;5028909;28;20398;-64
2022/08/09 06:46:00;;;;;;;4.90;2.20;;;23.20;55.00;;;;;;5029390;28;20033;-64
2022/08/09 06:48:26;;;;;;;5.68;2.30;;;23.20;54.90;;;;;;5027674;28;20030;-65
2022/08/09 06:50:52;;;;;;;5.30;2.30;;;23.20;54.90;;;;;;5029808;28;20021;-65
2022/08/09 06:53:18;;;;;;;5.50;2.40;;;23.20;54.90;;;;;;5028161;28;20517;-64
2022/08/09 06:55:43;;;;;;;5.03;2.30;;;23.20;54.90;;;;;;5030589;28;20425;-65
2022/08/09 06:58:09;;;;;;;5.57;2.45;;;23.20;54.90;;;;;;5028623;28;20029;-65
2022/08/09 07:00:35;;;;;;;6.00;2.20;;;23.20;54.90;;;;;;5027378;28;20034;-64
2022/08/09 07:03:01;;;;;;;4.35;2.20;;;23.20;54.80;;;;;;5028137;28;20033;-64
2022/08/09 07:05:27;;;;;;;5.15;2.50;;;23.20;54.90;;;;;;5029747;28;20013;-64
2022/08/09 07:07:54;;;;;;;4.20;2.28;;;23.20;54.70;;;;;;5028186;28;20267;-65
2022/08/09 07:10:20;;;;;;;5.18;2.28;;;23.20;54.80;;;;;;5026632;28;20060;-64
2022/08/09 07:12:46;;;;;;;4.78;2.15;;;23.20;54.70;;;;;;5028205;28;20039;-64
2022/08/09 07:15:12;;;;;;;4.90;2.15;;;23.20;54.70;;;;;;5027811;28;20033;-64
2022/08/09 07:17:37;;;;;;;5.47;2.20;;;23.20;54.80;;;;;;5030030;28;20394;-65
2022/08/09 07:20:03;;;;;;;4.80;2.17;;;23.20;54.70;;;;;;5024673;28;20029;-64
2022/08/09 07:22:29;;;;;;;5.60;2.30;;;23.20;54.70;;;;;;5027932;28;20025;-64
2022/08/09 07:24:55;;;;;;;3.30;2.10;;;23.20;54.70;;;;;;5024673;28;20078;-64
2022/08/09 07:27:20;;;;;;;5.68;2.30;;;23.20;54.70;;;;;;5027809;28;20041;-65
2022/08/09 07:29:46;;;;;;;4.25;2.10;;;23.20;54.70;;;;;;5027666;28;20026;-65
2022/08/09 07:32:12;;;;;;;6.68;2.38;;;23.20;54.70;;;;;;5033411;28;20044;-65
2022/08/09 07:34:37;;;;;;;5.05;2.33;;;23.20;54.70;;;;;;5027213;28;20159;-64
2022/08/09 07:37:03;;;;;;;5.28;2.30;;;23.20;54.70;;;;;;5027425;28;20110;-65
2022/08/09 07:39:28;;;;;;;5.22;2.25;;;23.30;54.70;;;;;;5028623;28;20110;-64
2022/08/09 07:41:54;;;;;;;5.35;2.35;;;23.20;54.60;;;;;;5026922;28;20033;-64
2022/08/09 07:44:20;;;;;;;4.60;2.20;;;23.20;54.60;;;;;;5025527;28;20039;-64
2022/08/09 07:46:46;;;;;;;5.43;2.33;;;23.20;54.60;;;;;;5025399;28;20041;-64
2022/08/09 07:49:12;;;;;;;4.53;2.20;;;23.20;54.60;;;;;;5028147;28;20749;-64
2022/08/09 07:51:38;;;;;;;5.82;2.30;;;23.30;54.70;;;;;;5027061;28;20029;-64
2022/08/09 07:54:03;;;;;;;4.25;2.15;;;23.20;54.60;;;;;;5027531;28;20084;-64
2022/08/09 07:56:29;;;;;;;4.15;2.28;;;23.30;54.70;;;;;;5027300;28;20048;-64
2022/08/09 07:58:55;;;;;;;6.68;2.50;;;23.30;54.70;;;;;;5026201;28;20025;-64
2022/08/09 08:01:21;;;;;;;4.93;2.40;;;23.30;54.60;;;;;;5026516;28;20510;-64
2022/08/09 08:03:46;;;;;;;4.40;2.20;;;23.30;54.70;;;;;;5027733;28;20032;-64
2022/08/09 08:06:12;;;;;;;3.25;2.08;;;23.30;54.60;;;;;;5030336;28;20035;-64
2022/08/09 08:08:38;;;;;;;5.03;2.42;;;23.30;54.60;;;;;;5026281;28;20025;-64
2022/08/09 08:11:03;;;;;;;4.30;2.20;;;23.30;54.70;;;;;;5025739;28;20049;-64
2022/08/09 08:13:29;;;;;;;5.95;2.55;;;23.30;54.60;;;;;;5027603;28;20025;-64
2022/08/09 08:15:54;;;;;;;5.45;2.28;;;23.30;54.60;;;;;;5028666;28;20051;-64
2022/08/09 08:18:20;;;;;;;5.60;2.20;;;23.40;54.70;;;;;;5023306;28;20076;-64
2022/08/09 08:20:46;;;;;;;4.43;2.20;;;23.30;54.60;;;;;;5027212;28;20580;-64
2022/08/09 08:23:11;;;;;;;4.53;2.08;;;23.30;54.60;;;;;;5027190;28;20020;-64
2022/08/09 08:25:37;;;;;;;4.00;2.30;;;23.30;54.60;;;;;;5024992;28;20037;-64
2022/08/09 08:28:04;;;;;;;4.43;2.08;;;23.30;54.70;;;;;;5025967;28;20402;-64
2022/08/09 08:30:29;;;;;;;5.10;2.10;;;23.40;54.70;;;;;;5027910;28;20075;-64
2022/08/09 08:32:55;;;;;;;4.15;2.38;;;23.40;54.80;;;;;;5023329;28;20025;-64
2022/08/09 08:35:21;;;;;;;4.75;2.08;;;23.40;54.90;;;;;;5027076;28;20036;-64
2022/08/09 08:37:47;;;;;;;4.53;2.20;;;23.40;55.20;;;;;;5027347;28;20029;-64
2022/08/09 08:40:12;;;;;;;4.30;2.00;;;23.50;55.30;;;;;;5027713;28;22102;-64
2022/08/09 08:42:38;;;;;;;4.78;2.30;;;23.50;55.50;;;;;;5026611;28;20030;-64
2022/08/09 08:45:04;;;;;;;4.20;2.10;;;23.50;55.60;;;;;;5025857;28;20052;-64
2022/08/09 08:47:30;;;;;;;5.15;2.22;;;23.50;55.70;;;;;;5025509;28;20483;-65
2022/08/09 08:49:57;;;;;;;7.50;2.72;;;23.50;56.30;;;;;;5027790;28;20049;-64
2022/08/09 08:52:27;;;;;;;8.25;2.90;;;23.50;56.40;;;;;;5029920;28;20086;-64
2022/08/09 08:54:57;;;;;;;5.28;2.40;;;23.60;57.20;;;;;;5030384;28;20038;-64
2022/08/09 08:57:23;;;;;;;5.75;2.40;;;23.60;56.80;;;;;;5029865;28;20090;-65
2022/08/09 08:59:49;;;;;;;10.85;2.75;;;23.60;57.00;;;;;;5030626;28;20052;-65
2022/08/09 09:02:26;;;;;;;6.43;2.40;;;23.60;56.80;;;;;;5030098;28;20087;-65
2022/08/09 09:04:54;;;;;;;10.38;2.72;;;23.70;57.00;;;;;;5028768;28;20041;-65
2022/08/09 09:07:20;;;;;;;8.93;2.75;;;23.70;57.30;;;;;;5031669;28;20037;-64
2022/08/09 09:09:47;;;;;;;8.55;2.63;;;23.70;57.30;;;;;;5034101;28;20064;-64
2022/08/09 09:12:16;;;;;;;9.48;3.15;;;23.70;57.30;;;;;;5031985;28;20406;-63
2022/08/09 09:14:43;;;;;;;5.68;2.47;;;23.70;57.30;;;;;;5028309;28;20099;-63
2022/08/09 09:17:09;;;;;;;9.38;2.75;;;23.70;57.00;;;;;;5026553;28;20030;-63
2022/08/09 09:19:34;;;;;;;9.57;2.78;;;23.80;57.70;;;;;;5029270;28;20017;-65
2022/08/09 09:22:14;;;;;;;9.18;2.90;;;23.80;57.40;;;;;;5030555;28;20090;-63
2022/08/09 09:24:43;;;;;;;9.07;2.50;;;23.80;57.50;;;;;;5030258;28;20021;-64
2022/08/09 09:27:09;;;;;;;10.18;2.95;;;23.80;57.60;;;;;;5029255;28;20107;-63
2022/08/09 09:29:39;;;;;;;9.77;2.80;;;23.90;57.40;;;;;;5029620;28;20405;-64
2022/08/09 09:32:05;;;;;;;8.30;2.60;;;23.90;57.40;;;;;;5030930;28;20026;-64
2022/08/09 09:34:31;;;;;;;9.30;2.22;;;23.90;57.40;;;;;;5029729;28;20022;-64
2022/08/09 09:36:59;;;;;;;8.50;2.45;;;23.90;57.50;;;;;;5054156;28;20029;-65
2022/08/09 09:39:27;;;;;;;11.30;2.63;;;23.90;57.40;;;;;;5030006;28;20022;-65
2022/08/09 09:41:53;;;;;;;9.48;2.42;;;24.00;57.70;;;;;;5053034;28;20037;-66
2022/08/09 09:44:31;;;;;;;5.75;2.20;;;24.00;57.30;;;;;;5028681;28;20025;-65
2022/08/09 09:47:04;;;;;;;9.70;2.40;;;24.00;57.30;;;;;;5030564;28;20041;-65
2022/08/09 09:49:29;;;;;;;10.57;2.40;;;24.00;57.10;;;;;;5029164;28;20033;-65
2022/08/09 09:52:04;;;;;;;8.60;2.40;;;24.00;57.00;;;;;;5028733;28;20401;-65
2022/08/09 09:54:36;;;;;;;10.70;2.50;;;24.00;56.90;;;;;;5028463;28;20128;-65
2022/08/09 09:57:19;;;;;;;7.70;2.33;;;24.00;56.70;;;;;;5030840;28;20030;-65
2022/08/09 09:59:46;;;;;;;8.43;2.30;;;24.00;56.60;;;;;;5028962;28;20033;-66
2022/08/09 10:02:12;;;;;;;7.57;2.60;;;24.00;56.50;;;;;;5029467;28;20064;-65
2022/08/09 10:04:38;;;;;;;9.65;2.40;;;24.00;56.60;;;;;;5030293;28;20038;-65
2022/08/09 10:07:04;;;;;;;9.30;2.38;;;24.10;56.60;;;;;;5026822;28;20092;-65
2022/08/09 10:09:49;;;;;;;8.43;2.85;;;24.10;56.60;;;;;;5028048;28;20029;-65
2022/08/09 10:12:25;;;;;;;;;;;24.10;56.90;;;;;;5032061;28;20060;-65
2022/08/09 10:14:52;;;;;;;10.05;2.50;;;24.10;56.70;;;;;;5030305;28;19916;-65
2022/08/09 10:17:18;;;;;;;6.70;2.20;;;24.10;56.60;;;;;;5035205;28;20029;-65
2022/08/09 10:19:44;;;;;;;9.68;2.55;;;24.10;56.80;;;;;;5027716;28;20029;-65
2022/08/09 10:22:10;;;;;;;9.35;2.72;;;24.10;56.70;;;;;;5029975;28;20051;-65
2022/08/09 10:24:35;;;;;;;8.93;2.58;;;24.20;56.70;;;;;;5025817;28;20095;-65
2022/08/09 10:27:01;;;;;;;10.52;2.38;;;24.20;57.00;;;;;;5029248;28;20042;-65
2022/08/09 10:29:27;;;;;;;9.85;2.80;;;24.20;57.00;;;;;;5028828;28;20021;-65
2022/08/09 10:31:52;;;;;;;8.13;2.30;;;24.20;57.10;;;;;;5028612;28;20041;-65
2022/08/09 10:34:18;;;;;;;12.70;3.00;;;24.20;57.10;;;;;;5055809;28;20520;-65
2022/08/09 10:36:44;;;;;;;8.82;2.70;;;24.30;57.40;;;;;;5028360;28;20512;-65
2022/08/09 10:39:11;;;;;;;9.15;2.70;;;24.30;57.20;;;;;;5027777;28;20417;-65
2022/08/09 10:41:36;;;;;;;8.55;2.83;;;24.30;57.50;;;;;;5028490;28;20060;-65
2022/08/09 10:44:02;;;;;;;12.05;3.53;;;24.30;57.20;;;;;;5029775;28;20053;-65
2022/08/09 10:46:57;;;;;;;11.15;2.75;;;24.30;57.70;;;;;;5027530;28;20044;-66
2022/08/09 10:49:35;;;;;;;9.40;3.10;;;24.30;58.00;;;;;;5024472;28;20068;-65
2022/08/09 10:52:17;;;;;;;9.10;3.03;;;24.30;57.70;;;;;;5025080;28;20021;-65
2022/08/09 10:54:42;;;;;;;8.43;3.30;;;24.30;57.70;;;;;;5033874;28;20179;-65
2022/08/09 10:57:10;;;;;;;11.18;3.30;;;24.30;58.10;;;;;;5026763;28;20100;-65
2022/08/09 10:59:37;;;;;;;9.68;3.00;;;24.40;57.70;;;;;;5028516;28;20036;-65
2022/08/09 11:02:07;;;;;;;9.65;3.50;;;24.40;57.80;;;;;;5028569;28;20026;-65
2022/08/09 11:04:33;;;;;;;11.07;3.20;;;24.40;57.90;;;;;;5028878;28;20113;-65
2022/08/09 11:06:59;;;;;;;11.05;3.35;;;24.40;58.10;;;;;;5026918;28;20037;-65
2022/08/09 11:09:39;;;;;;;10.10;3.20;;;24.50;58.00;;;;;;5028336;28;20033;-65
2022/08/09 11:12:25;;;;;;;9.45;3.63;;;24.50;58.20;;;;;;5026851;28;20040;-65
2022/08/09 11:14:55;;;;;;;10.85;3.80;;;24.50;58.10;;;;;;5027155;28;20502;-65
2022/08/09 11:17:21;;;;;;;10.77;3.58;;;24.50;58.20;;;;;;5027696;28;20410;-65
2022/08/09 11:19:52;;;;;;;10.25;3.55;;;24.50;58.20;;;;;;5028274;28;20018;-65
2022/08/09 11:22:18;;;;;;;10.18;4.00;;;24.60;58.20;;;;;;5027586;28;20112;-65
2022/08/09 11:25:04;;;;;;;9.27;3.80;;;24.60;58.30;;;;;;5028453;28;20101;-65
2022/08/09 11:27:40;;;;;;;9.82;3.72;;;24.60;58.20;;;;;;5028042;28;20520;-65
2022/08/09 11:30:07;;;;;;;8.57;3.60;;;24.60;58.30;;;;;;5030044;28;20693;-65
2022/08/09 11:32:39;;;;;;;12.88;4.00;;;24.60;58.20;;;;;;5030296;28;20029;-65
2022/08/09 11:35:19;;;;;;;10.70;3.63;;;24.70;58.10;;;;;;5028135;28;20502;-65
2022/08/09 11:37:46;;;;;;;12.32;4.18;;;24.70;58.20;;;;;;5031425;28;20040;-65
2022/08/09 11:40:26;;;;;;;9.93;3.65;;;24.70;58.20;;;;;;5027237;28;20117;-65
2022/08/09 11:42:53;;;;;;;13.93;4.05;;;24.70;58.30;;;;;;5026636;28;20033;-65
2022/08/09 11:45:20;;;;;;;18.88;4.68;;;24.70;58.30;;;;;;5029363;28;20092;-65
2022/08/09 11:47:46;;;;;;;14.20;4.53;;;24.80;58.60;;;;;;5027791;28;20037;-65
2022/08/09 11:50:12;;;;;;;13.93;4.43;;;24.80;58.40;;;;;;5026375;28;20026;-65
2022/08/09 11:52:59;;;;;;;11.68;3.88;;;24.90;58.30;;;;;;5025962;28;20037;-65
2022/08/09 11:55:36;;;;;;;11.77;4.25;;;24.90;58.10;;;;;;5024801;28;20526;-65
2022/08/09 11:58:31;;;;;;;9.35;3.63;;;25.00;59.40;;;;;;5027426;28;20025;-65
2022/08/09 12:01:02;;;;;;;12.55;3.90;;;25.00;58.20;;;;;;5029658;28;21045;-65
2022/08/09 12:03:28;;;;;;;9.02;4.30;;;25.10;58.30;;;;;;5027801;28;20029;-65
2022/08/09 12:05:56;;;;;;;13.73;4.10;;;25.10;58.00;;;;;;5025458;28;20037;-65
2022/08/09 12:08:22;;;;;;;15.77;4.35;;;25.20;58.00;;;;;;5026734;28;20035;-65
2022/08/09 12:10:51;;;;;;;11.05;3.90;;;25.20;57.90;;;;;;5028029;28;20026;-65
2022/08/09 12:13:36;;;;;;;12.45;4.35;;;25.20;57.60;;;;;;5023910;28;20112;-65
2022/08/09 12:16:06;;;;;;;13.25;3.88;;;25.30;57.90;;;;;;5026037;28;20049;-65
2022/08/09 12:18:32;;;;;;;12.63;4.03;;;25.30;57.50;;;;;;5027623;28;20545;-65
2022/08/09 12:20:58;;;;;;;10.63;3.75;;;25.30;57.40;;;;;;5024397;28;20145;-65
2022/08/09 12:23:24;;;;;;;12.32;3.70;;;25.30;57.30;;;;;;5029686;28;20037;-65
2022/08/09 12:25:51;;;;;;;10.50;4.10;;;25.40;57.60;;;;;;5061153;28;20095;-65
2022/08/09 12:28:20;;;;;;;11.73;3.58;;;25.40;57.30;;;;;;5030682;28;20033;-65
2022/08/09 12:30:46;;;;;;;11.60;3.70;;;25.40;57.30;;;;;;5027221;28;20079;-65
2022/08/09 12:33:11;;;;;;;11.45;3.70;;;25.40;57.40;;;;;;5025837;28;20033;-65
2022/08/09 12:35:37;;;;;;;9.90;3.40;;;25.40;57.30;;;;;;5026785;28;20026;-62
2022/08/09 12:38:24;;;;;;;9.88;3.78;;;25.60;57.30;;;;;;5026943;28;20040;-64
2022/08/09 12:40:50;;;;;;;13.93;3.90;;;25.50;57.10;;;;;;5025087;28;20384;-64
2022/08/09 12:43:18;;;;;;;11.00;3.70;;;25.50;57.00;;;;;;5026579;28;20079;-64
2022/08/09 12:45:46;;;;;;;12.70;3.65;;;25.50;57.20;;;;;;5023636;28;20036;-65
2022/08/09 12:48:13;;;;;;;10.80;3.60;;;25.50;57.00;;;;;;5054140;28;20029;-65